Terminal Aerodrome Forecast
Issued by NWS

Home | Current Version | Previous Version | Text Only | Print | Product List | Glossary On
Versions: 1 2 3 4 5 6 7 8 9 10 11 12 13 14 15 16 17 18 19 20 21 22 23 24 25 26 27 28 29 30
000
FTUS41 KBUF 270500
TAFJHW
TAF
KJHW 270523Z 2706/2806 27004KT 6SM BR FEW020 OVC050
     FM271500 29006KT 6SM BR VCSH OVC015
     FM272100 33009KT 2SM -SN OVC015
      AMD LTD TO CLD VIS AND WIND=

USA.gov is the U.S. government's official web portal to all federal, state and local government web resources and services.